Time;durP1;ratioP1;P1;durP2;ratioP2;P2;SDS_P1;SDS_P2;PMS_P1;PMS_P2;Temp;Humidity;BMP_temperature;BMP_pressure;BME280_temperature;BME280_humidity;BME280_pressure;Samples;Min_cycle;Max_cycle;Signal;HPM_P1;HPM_P2
2023/01/17 00:01:08;;;;;;;4.65;1.58;;;3.70;99.90;;;;;;5075341;28;20404;-37
2023/01/17 00:09:51;;;;;;;3.05;2.03;;;3.70;99.90;;;;;;5076140;28;20051;-37
2023/01/17 00:12:00;;;;;;;3.03;1.80;;;3.70;99.90;;;;;;5073988;28;20102;-37
2023/01/17 00:14:26;;;;;;;2.13;1.92;;;3.70;99.90;;;;;;5074672;28;20401;-37
2023/01/17 00:16:53;;;;;;;1.95;1.67;;;3.60;99.90;;;;;;5060784;28;20045;-37
2023/01/17 01:34:02;;;;;;;0.73;0.40;;;3.10;99.90;;;;;;5065883;28;20502;-42
2023/01/17 01:36:28;;;;;;;1.98;0.57;;;3.10;99.90;;;;;;5069771;28;20067;-43
2023/01/17 01:38:55;;;;;;;1.60;0.98;;;3.00;99.90;;;;;;5062977;28;20047;-43
2023/01/17 01:41:21;;;;;;;3.95;0.65;;;3.00;99.90;;;;;;5068750;28;20049;-44
2023/01/17 01:43:48;;;;;;;2.38;0.60;;;3.00;99.90;;;;;;5062288;28;20032;-43
2023/01/17 01:46:27;;;;;;;4.13;0.70;;;2.90;99.90;;;;;;5062957;28;20041;-42
2023/01/17 01:49:00;;;;;;;0.57;0.40;;;2.90;99.90;;;;;;5070596;28;20485;-43
2023/01/17 01:51:39;;;;;;;3.03;0.40;;;2.90;99.90;;;;;;5053146;28;20079;-37
2023/01/17 01:54:15;;;;;;;4.03;0.75;;;2.90;99.90;;;;;;5072463;28;20048;-41
2023/01/17 01:56:41;;;;;;;3.50;0.80;;;2.90;99.90;;;;;;5061555;28;20037;-40
2023/01/17 01:59:10;;;;;;;2.13;0.70;;;2.90;99.90;;;;;;5073218;28;20063;-40
2023/01/17 02:01:36;;;;;;;3.55;0.85;;;2.90;99.90;;;;;;5063655;28;20078;-39
2023/01/17 02:04:03;;;;;;;3.15;0.80;;;2.90;99.90;;;;;;5077511;28;20044;-39
2023/01/17 02:06:33;;;;;;;2.85;0.70;;;2.90;99.90;;;;;;5065107;28;20044;-39
2023/01/17 02:09:04;;;;;;;1.67;0.80;;;2.80;99.90;;;;;;5076936;28;20036;-39
2023/01/17 02:11:31;;;;;;;1.90;0.75;;;2.80;99.90;;;;;;5063417;28;20068;-39
2023/01/17 02:13:57;;;;;;;3.33;0.80;;;2.90;99.90;;;;;;5067382;28;20040;-40
2023/01/17 02:16:25;;;;;;;2.08;0.40;;;2.80;99.90;;;;;;5066298;28;20404;-39
2023/01/17 02:19:29;;;;;;;4.50;0.90;;;2.80;99.90;;;;;;5063586;28;20041;-39
2023/01/17 02:22:19;;;;;;;3.28;0.90;;;2.80;99.90;;;;;;5082423;28;20401;-40
2023/01/17 02:25:04;;;;;;;0.60;0.52;;;2.80;99.90;;;;;;5063065;28;20041;-40
2023/01/17 02:27:55;;;;;;;1.42;0.50;;;2.70;99.90;;;;;;5064254;28;20040;-40
2023/01/17 02:30:31;;;;;;;1.35;0.47;;;2.70;99.90;;;;;;5061858;28;20089;-47
2023/01/17 02:32:57;;;;;;;1.88;0.60;;;2.60;99.90;;;;;;5070431;28;20032;-43
2023/01/17 02:35:44;;;;;;;5.68;0.70;;;2.60;99.90;;;;;;5070121;28;20085;-42
2023/01/17 02:38:30;;;;;;;3.50;0.70;;;2.50;99.90;;;;;;5069708;28;20120;-43
2023/01/17 02:41:06;;;;;;;2.50;0.60;;;2.40;99.90;;;;;;5057430;28;20109;-41
2023/01/17 02:43:33;;;;;;;2.55;0.73;;;2.40;99.90;;;;;;5053197;28;20119;-41
2023/01/17 02:45:59;;;;;;;6.45;0.93;;;2.40;99.90;;;;;;5065201;28;20075;-40
2023/01/17 02:48:28;;;;;;;3.72;0.75;;;2.40;99.90;;;;;;5069532;28;20041;-40
2023/01/17 02:50:53;;;;;;;1.77;0.70;;;2.40;99.90;;;;;;5061867;28;20173;-40
2023/01/17 02:53:43;;;;;;;3.90;0.80;;;2.40;99.90;;;;;;5068444;28;20499;-39
2023/01/17 02:56:26;;;;;;;3.38;0.65;;;2.40;99.90;;;;;;5065117;28;20097;-40
2023/01/17 02:58:51;;;;;;;1.55;0.60;;;2.40;99.90;;;;;;5062796;28;20068;-40
2023/01/17 03:01:41;;;;;;;2.55;0.70;;;2.40;99.90;;;;;;5066279;28;20072;-39
2023/01/17 03:04:25;;;;;;;3.33;0.65;;;2.50;99.90;;;;;;5066047;28;20044;-40
2023/01/17 03:07:04;;;;;;;2.05;0.60;;;2.40;99.90;;;;;;5064220;28;20362;-40
2023/01/17 03:09:31;;;;;;;3.45;0.68;;;2.50;99.90;;;;;;5067498;28;20124;-41
2023/01/17 03:11:58;;;;;;;5.38;0.90;;;2.50;99.90;;;;;;5053072;28;20041;-40
2023/01/17 03:14:23;;;;;;;3.67;0.95;;;2.50;99.90;;;;;;5067415;28;20036;-39
2023/01/17 03:16:49;;;;;;;4.93;1.10;;;2.40;99.90;;;;;;5061293;28;20036;-39
2023/01/17 03:19:15;;;;;;;3.28;0.73;;;2.50;99.90;;;;;;5060833;28;20045;-40
2023/01/17 03:21:41;;;;;;;1.67;0.93;;;2.50;99.90;;;;;;5051402;28;20084;-38
2023/01/17 03:24:07;;;;;;;6.57;1.02;;;2.50;99.90;;;;;;5068370;28;20123;-39
2023/01/17 03:26:33;;;;;;;3.53;0.90;;;2.50;99.90;;;;;;5074318;28;20119;-37
2023/01/17 03:28:59;;;;;;;2.67;0.90;;;2.50;99.90;;;;;;5074552;28;20453;-37
2023/01/17 03:31:24;;;;;;;2.83;0.65;;;2.60;99.90;;;;;;5074708;28;20041;-38
2023/01/17 03:33:50;;;;;;;3.47;0.80;;;2.60;99.90;;;;;;5074869;28;20056;-38
2023/01/17 03:36:17;;;;;;;6.03;1.00;;;2.60;99.90;;;;;;5058305;28;20450;-39
2023/01/17 03:38:43;;;;;;;2.65;0.60;;;2.50;99.90;;;;;;5076037;28;20317;-40
2023/01/17 03:41:09;;;;;;;1.58;0.77;;;2.50;99.90;;;;;;5073242;28;20404;-39
2023/01/17 03:43:34;;;;;;;5.65;0.82;;;2.50;99.90;;;;;;5074488;28;20040;-39
2023/01/17 03:46:05;;;;;;;1.80;0.60;;;2.50;99.90;;;;;;5071575;28;20055;-40
2023/01/17 03:48:31;;;;;;;3.20;0.70;;;2.50;99.90;;;;;;5073625;28;20032;-40
2023/01/17 03:50:57;;;;;;;2.60;0.70;;;2.40;99.90;;;;;;5076670;28;20337;-40
2023/01/17 03:53:24;;;;;;;3.83;0.70;;;2.40;99.90;;;;;;5075976;28;20036;-40
2023/01/17 03:55:49;;;;;;;3.00;1.15;;;2.40;99.90;;;;;;5078224;28;20040;-40
2023/01/17 03:58:15;;;;;;;2.65;0.60;;;2.40;99.90;;;;;;5073623;28;20046;-40
2023/01/17 04:00:41;;;;;;;5.53;0.88;;;2.40;99.90;;;;;;5077664;28;20056;-40
2023/01/17 04:03:07;;;;;;;1.83;0.70;;;2.30;99.90;;;;;;5071710;28;20393;-40
2023/01/17 04:05:33;;;;;;;1.63;0.70;;;2.30;99.90;;;;;;5073012;28;20029;-40
2023/01/17 04:07:59;;;;;;;3.47;0.90;;;2.30;99.90;;;;;;5057436;28;20044;-40
2023/01/17 04:10:25;;;;;;;3.38;0.68;;;2.30;99.90;;;;;;5070873;28;20033;-40
2023/01/17 04:12:51;;;;;;;1.25;0.60;;;2.20;99.90;;;;;;5074409;28;20032;-40
2023/01/17 04:15:16;;;;;;;2.40;0.70;;;2.20;99.90;;;;;;5071418;28;20041;-39
2023/01/17 04:17:42;;;;;;;2.80;0.80;;;2.20;99.90;;;;;;5057788;28;20040;-41
2023/01/17 04:20:30;;;;;;;12.40;3.40;;;2.20;99.90;;;;;;5077357;28;20063;-40
2023/01/17 04:22:56;;;;;;;4.18;1.55;;;2.20;99.90;;;;;;5065797;28;20041;-40
2023/01/17 04:25:24;;;;;;;4.78;1.40;;;2.20;99.90;;;;;;5076802;28;20039;-39
2023/01/17 04:27:53;;;;;;;16.10;8.13;;;2.20;99.90;;;;;;5073137;28;20044;-40
2023/01/17 04:30:19;;;;;;;4.97;2.17;;;2.20;99.90;;;;;;5055919;28;20079;-40
2023/01/17 04:32:45;;;;;;;5.53;2.83;;;2.10;99.90;;;;;;5062425;28;20474;-40
2023/01/17 04:35:10;;;;;;;5.10;1.60;;;2.00;99.90;;;;;;5060791;28;20134;-40
2023/01/17 04:37:36;;;;;;;6.22;2.38;;;2.00;99.90;;;;;;5071861;28;20076;-40
2023/01/17 04:40:03;;;;;;;5.75;3.22;;;2.00;99.90;;;;;;5068246;28;20040;-40
2023/01/17 04:42:29;;;;;;;7.22;2.30;;;1.90;99.90;;;;;;5067994;28;20064;-42
2023/01/17 04:44:55;;;;;;;7.38;2.88;;;1.90;99.90;;;;;;5067134;28;20425;-41
2023/01/17 04:47:21;;;;;;;3.72;0.93;;;1.80;99.90;;;;;;5068897;28;20501;-44
2023/01/17 04:49:47;;;;;;;5.22;2.10;;;1.80;99.90;;;;;;5055638;28;20115;-41
2023/01/17 04:52:13;;;;;;;5.45;2.05;;;1.80;99.90;;;;;;5068496;28;20159;-41
2023/01/17 04:54:40;;;;;;;8.00;1.70;;;1.70;99.90;;;;;;5071795;28;20037;-42
2023/01/17 04:57:06;;;;;;;4.25;1.50;;;1.70;99.90;;;;;;5072109;28;20047;-42
2023/01/17 04:59:32;;;;;;;9.15;2.40;;;1.70;99.90;;;;;;5069844;28;20040;-42
2023/01/17 05:01:57;;;;;;;4.97;1.50;;;1.70;99.90;;;;;;5066670;28;20123;-47
2023/01/17 05:04:23;;;;;;;6.30;1.88;;;1.60;99.90;;;;;;5069380;28;20048;-43
2023/01/17 05:06:49;;;;;;;5.47;1.65;;;1.60;99.90;;;;;;5072735;28;20028;-41
2023/01/17 05:09:15;;;;;;;8.05;2.33;;;1.50;99.90;;;;;;5073803;28;20029;-39
2023/01/17 05:11:40;;;;;;;4.97;2.10;;;1.50;99.90;;;;;;5072184;28;20502;-39
2023/01/17 05:14:06;;;;;;;5.97;2.00;;;1.50;99.90;;;;;;5072063;28;20052;-39
2023/01/17 05:16:32;;;;;;;7.85;2.65;;;1.50;99.90;;;;;;5061195;28;20033;-40
2023/01/17 05:18:57;;;;;;;5.40;2.53;;;1.40;99.90;;;;;;5071824;28;20047;-39
2023/01/17 05:21:23;;;;;;;5.28;2.30;;;1.40;99.90;;;;;;5059853;28;20040;-40
2023/01/17 05:23:49;;;;;;;7.85;3.20;;;1.30;99.90;;;;;;5071607;28;20028;-40
2023/01/17 05:26:15;;;;;;;5.80;2.30;;;1.30;99.90;;;;;;5067450;28;20032;-40
2023/01/17 05:28:41;;;;;;;7.80;2.88;;;1.20;99.90;;;;;;5071743;28;20450;-39
2023/01/17 05:31:07;;;;;;;3.10;1.10;;;1.20;99.90;;;;;;5066342;28;20064;-40
2023/01/17 05:33:32;;;;;;;4.10;1.42;;;1.20;99.90;;;;;;5069000;28;20411;-39
2023/01/17 05:35:58;;;;;;;5.88;1.80;;;1.20;99.90;;;;;;5070230;28;20078;-38
2023/01/17 05:38:24;;;;;;;8.20;1.77;;;1.20;99.90;;;;;;5070052;28;20117;-42
2023/01/17 05:40:50;;;;;;;9.13;1.80;;;1.10;99.90;;;;;;5069321;28;20047;-41
2023/01/17 05:43:16;;;;;;;4.95;1.67;;;1.10;99.90;;;;;;5063590;28;20040;-41
2023/01/17 05:45:41;;;;;;;7.55;3.10;;;1.10;99.90;;;;;;5067183;28;20032;-41
2023/01/17 05:48:08;;;;;;;8.00;2.00;;;1.10;99.90;;;;;;5065409;28;20062;-41
2023/01/17 05:50:36;;;;;;;5.53;2.58;;;1.00;99.90;;;;;;5058798;28;20041;-41
2023/01/17 05:53:05;;;;;;;5.30;1.60;;;1.00;99.90;;;;;;5062128;28;20374;-41
2023/01/17 05:55:31;;;;;;;6.30;1.80;;;1.00;99.90;;;;;;5061210;28;20548;-42
2023/01/17 05:57:57;;;;;;;3.05;1.10;;;1.00;99.90;;;;;;5061341;28;20428;-41
2023/01/17 06:00:24;;;;;;;3.55;1.23;;;0.90;99.90;;;;;;5066965;28;20033;-43
2023/01/17 06:02:59;;;;;;;4.93;1.45;;;0.90;99.90;;;;;;5067344;28;20043;-42
2023/01/17 06:05:26;;;;;;;4.88;1.48;;;1.00;99.90;;;;;;5051046;28;20037;-39
2023/01/17 06:07:53;;;;;;;6.35;1.48;;;0.90;99.90;;;;;;5069723;28;20036;-39
2023/01/17 06:10:21;;;;;;;6.13;1.80;;;0.90;99.90;;;;;;5070553;28;20050;-39
2023/01/17 06:12:47;;;;;;;4.22;1.15;;;1.00;99.90;;;;;;5064820;28;20032;-40
2023/01/17 06:15:15;;;;;;;6.85;1.52;;;1.00;99.90;;;;;;5063039;28;20033;-40
2023/01/17 06:17:41;;;;;;;12.98;1.55;;;1.00;99.90;;;;;;5070794;28;20567;-39
2023/01/17 06:20:09;;;;;;;5.28;1.95;;;1.00;99.90;;;;;;5055003;28;20044;-39
2023/01/17 06:22:35;;;;;;;7.40;2.28;;;1.00;99.90;;;;;;5071318;28;20524;-39
2023/01/17 06:25:00;;;;;;;8.65;1.33;;;1.00;99.90;;;;;;5071058;28;20576;-39
2023/01/17 06:27:26;;;;;;;3.65;1.40;;;0.90;99.90;;;;;;5070672;28;20098;-39
2023/01/17 06:29:52;;;;;;;6.57;1.40;;;0.90;99.90;;;;;;5073094;28;20090;-39
2023/01/17 06:32:18;;;;;;;2.60;1.00;;;0.90;99.90;;;;;;5071776;28;20032;-39
2023/01/17 06:34:44;;;;;;;3.45;1.25;;;0.90;99.90;;;;;;5044148;28;20045;-40
2023/01/17 06:37:10;;;;;;;4.55;1.40;;;0.90;99.90;;;;;;5069869;28;20139;-40
2023/01/17 06:39:36;;;;;;;3.42;1.20;;;0.90;99.90;;;;;;5069896;28;20043;-39
2023/01/17 06:42:02;;;;;;;4.35;1.20;;;0.90;99.90;;;;;;5069093;28;20041;-39
2023/01/17 06:44:27;;;;;;;5.63;1.73;;;1.00;99.90;;;;;;5062461;28;20047;-38
2023/01/17 06:46:53;;;;;;;5.05;1.05;;;0.90;99.90;;;;;;5065580;28;20039;-38
2023/01/17 06:49:19;;;;;;;5.93;1.25;;;0.90;99.90;;;;;;5067826;28;20040;-38
2023/01/17 06:51:45;;;;;;;3.35;1.27;;;0.90;99.90;;;;;;5048157;28;20104;-38
2023/01/17 06:54:11;;;;;;;4.22;1.10;;;0.90;99.90;;;;;;5066252;28;20045;-38
2023/01/17 06:56:37;;;;;;;3.63;1.40;;;0.90;99.90;;;;;;5071225;28;20174;-39
2023/01/17 06:59:03;;;;;;;2.88;1.38;;;0.90;99.90;;;;;;5066086;28;20036;-39
2023/01/17 07:01:29;;;;;;;5.90;1.15;;;0.90;99.90;;;;;;5070143;28;20029;-38
2023/01/17 07:03:56;;;;;;;6.80;1.25;;;0.90;99.90;;;;;;5064647;28;20028;-38
2023/01/17 07:06:27;;;;;;;4.88;0.90;;;0.90;99.90;;;;;;5069362;28;20037;-38
2023/01/17 07:08:54;;;;;;;4.35;1.02;;;0.90;99.90;;;;;;5064865;28;20427;-38
2023/01/17 07:11:20;;;;;;;1.75;0.80;;;1.00;99.90;;;;;;5070034;28;20044;-38
2023/01/17 07:13:46;;;;;;;5.65;0.80;;;1.00;99.90;;;;;;5071149;28;20032;-38
2023/01/17 07:16:12;;;;;;;3.58;1.02;;;1.00;99.90;;;;;;5070847;28;20044;-38
2023/01/17 07:18:37;;;;;;;5.10;1.40;;;1.00;99.90;;;;;;5062046;28;20090;-40
2023/01/17 07:21:03;;;;;;;5.13;1.50;;;1.00;99.90;;;;;;5070204;28;20040;-38
2023/01/17 07:23:29;;;;;;;6.07;1.48;;;0.90;99.90;;;;;;5072103;28;20499;-38
2023/01/17 07:25:59;;;;;;;6.20;1.35;;;0.90;99.90;;;;;;5070871;28;20032;-38
2023/01/17 07:28:26;;;;;;;5.82;1.50;;;0.90;99.90;;;;;;5070887;28;20036;-38
2023/01/17 07:30:53;;;;;;;9.07;2.80;;;0.80;99.90;;;;;;5070723;28;20040;-38
2023/01/17 07:33:19;;;;;;;3.50;2.35;;;0.80;99.90;;;;;;5069611;28;20032;-38
2023/01/17 07:35:46;;;;;;;8.02;2.88;;;0.80;99.90;;;;;;5068545;28;20039;-38
2023/01/17 07:38:16;;;;;;;6.50;3.20;;;0.80;99.90;;;;;;5068708;28;20036;-38
2023/01/17 07:40:43;;;;;;;14.15;6.75;;;0.80;99.90;;;;;;5052348;28;20072;-38
2023/01/17 07:43:12;;;;;;;5.90;2.20;;;0.80;99.90;;;;;;5068788;28;20048;-38
2023/01/17 07:45:49;;;;;;;8.77;3.70;;;0.80;99.90;;;;;;5068882;28;20507;-38
2023/01/17 07:48:20;;;;;;;9.95;4.50;;;0.80;99.90;;;;;;5068339;28;20043;-40
2023/01/17 07:50:56;;;;;;;15.75;6.68;;;0.80;99.90;;;;;;5065437;28;20037;-40
2023/01/17 07:53:24;;;;;;;24.08;13.50;;;0.80;99.90;;;;;;5068366;28;20058;-40
2023/01/17 07:55:50;;;;;;;9.80;5.32;;;0.80;99.90;;;;;;5056267;28;20444;-40
2023/01/17 07:58:16;;;;;;;12.80;4.50;;;0.80;99.90;;;;;;5058426;28;20064;-41
2023/01/17 08:00:43;;;;;;;6.07;3.10;;;0.80;99.90;;;;;;5065522;28;20494;-41
2023/01/17 08:03:15;;;;;;;7.18;3.45;;;0.80;99.90;;;;;;5065526;28;20101;-40
2023/01/17 08:05:42;;;;;;;8.48;2.95;;;0.80;99.90;;;;;;5063756;28;20127;-40
2023/01/17 08:08:08;;;;;;;9.32;3.08;;;0.80;99.90;;;;;;5061137;28;20035;-41
2023/01/17 08:10:34;;;;;;;6.20;3.08;;;0.80;99.90;;;;;;5069558;28;20485;-40
2023/01/17 08:13:00;;;;;;;5.60;2.67;;;0.80;99.90;;;;;;5068183;28;20041;-41
2023/01/17 08:15:26;;;;;;;5.60;3.20;;;0.80;99.90;;;;;;5067932;28;20043;-40
2023/01/17 08:17:52;;;;;;;8.60;2.30;;;0.80;99.90;;;;;;5064517;28;20033;-40
2023/01/17 08:20:18;;;;;;;5.03;2.08;;;0.80;99.90;;;;;;5073236;28;20090;-40
2023/01/17 08:22:44;;;;;;;8.63;3.30;;;0.80;99.90;;;;;;5069952;28;20461;-40
2023/01/17 08:25:11;;;;;;;6.03;2.00;;;0.80;99.90;;;;;;5062846;28;20037;-40
2023/01/17 08:27:37;;;;;;;11.23;2.58;;;0.80;99.90;;;;;;5073205;28;20112;-40
2023/01/17 08:30:04;;;;;;;8.60;3.55;;;0.70;99.90;;;;;;5072970;28;20034;-40
2023/01/17 08:32:30;;;;;;;7.10;2.22;;;0.70;99.90;;;;;;5072486;28;20040;-38
2023/01/17 08:34:56;;;;;;;2.45;1.67;;;0.80;99.90;;;;;;5067101;28;20032;-38
2023/01/17 08:37:22;;;;;;;9.82;5.20;;;0.70;99.90;;;;;;5050523;28;20044;-38
2023/01/17 08:39:48;;;;;;;7.88;5.75;;;0.80;99.90;;;;;;5073094;28;20044;-37
2023/01/17 08:42:14;;;;;;;8.32;4.80;;;0.80;99.90;;;;;;5072812;28;20093;-38
2023/01/17 08:44:40;;;;;;;15.30;8.35;;;0.80;99.90;;;;;;5069450;28;20037;-38
2023/01/17 08:47:06;;;;;;;8.25;5.00;;;0.90;99.90;;;;;;5068647;28;20067;-39
2023/01/17 08:49:32;;;;;;;4.63;2.67;;;0.90;99.90;;;;;;5066783;28;20029;-42
2023/01/17 08:51:57;;;;;;;8.90;4.95;;;0.90;99.90;;;;;;5073756;28;20028;-39
2023/01/17 08:54:23;;;;;;;14.45;7.85;;;1.00;99.90;;;;;;5054319;28;20048;-39
2023/01/17 08:56:51;;;;;;;5.90;3.92;;;1.20;99.90;;;;;;5072655;28;20122;-39
2023/01/17 08:59:17;;;;;;;8.85;2.97;;;1.30;99.90;;;;;;5051917;28;20076;-39
2023/01/17 09:01:44;;;;;;;8.88;4.85;;;1.50;99.90;;;;;;5072708;28;20071;-39
2023/01/17 09:04:11;;;;;;;7.15;4.35;;;1.50;99.90;;;;;;5060249;28;20059;-39
2023/01/17 09:06:38;;;;;;;9.27;4.40;;;1.60;99.90;;;;;;5066068;28;20055;-40
2023/01/17 09:09:05;;;;;;;5.93;3.30;;;1.50;99.90;;;;;;5069433;28;20434;-40
2023/01/17 09:11:32;;;;;;;9.02;3.28;;;1.50;99.90;;;;;;5072118;28;20433;-40
2023/01/17 09:13:58;;;;;;;9.02;7.30;;;1.50;99.90;;;;;;5066609;28;20048;-40
2023/01/17 09:16:24;;;;;;;12.98;6.97;;;1.40;99.90;;;;;;5067700;28;20596;-41
2023/01/17 09:18:55;;;;;;;9.02;4.95;;;1.40;99.90;;;;;;5080852;22;20059;-40
2023/01/17 09:21:20;;;;;;;10.48;5.30;;;1.50;99.90;;;;;;5073543;28;20041;-39
2023/01/17 09:23:46;;;;;;;8.55;3.88;;;1.60;99.90;;;;;;5071462;28;20094;-39
2023/01/17 09:26:20;;;;;;;7.03;4.10;;;1.60;99.90;;;;;;5072128;28;20135;-38
2023/01/17 09:28:46;;;;;;;12.27;8.60;;;1.70;99.90;;;;;;5072016;28;20094;-38
2023/01/17 09:31:12;;;;;;;17.08;6.95;;;1.90;99.90;;;;;;5069550;28;20066;-38
2023/01/17 09:33:41;;;;;;;8.10;5.35;;;2.50;99.90;;;;;;5073811;28;20044;-36
2023/01/17 09:36:10;;;;;;;30.33;7.05;;;3.20;99.90;;;;;;5071973;28;20116;-36
2023/01/17 09:38:36;;;;;;;121.80;18.38;;;4.00;99.90;;;;;;5072131;28;20098;-37
2023/01/17 09:41:08;;;;;;;618.42;91.53;;;4.80;99.90;;;;;;5072834;28;20512;-37
2023/01/17 09:43:49;;;;;;;676.90;87.88;;;5.30;99.90;;;;;;5071351;28;20032;-37
2023/01/17 09:46:46;;;;;;;427.65;58.25;;;5.80;99.90;;;;;;5071903;28;20525;-37
2023/01/17 09:49:43;;;;;;;9.00;4.03;;;6.30;99.90;;;;;;5063120;28;20081;-37
2023/01/17 09:52:22;;;;;;;11.02;7.00;;;6.70;99.90;;;;;;5065074;28;20491;-37
2023/01/17 09:54:48;;;;;;;223.65;31.10;;;6.80;99.90;;;;;;5071370;28;20119;-37
2023/01/17 09:57:37;;;;;;;17.00;4.82;;;7.30;99.90;;;;;;5071260;28;20048;-37
2023/01/17 10:00:30;;;;;;;478.45;58.70;;;7.30;99.90;;;;;;5068260;28;20045;-37
2023/01/17 10:03:24;;;;;;;65.43;15.02;;;7.90;99.90;;;;;;5068393;28;20040;-37
2023/01/17 10:06:28;;;;;;;214.10;28.00;;;7.80;99.90;;;;;;5047865;28;20068;-37
2023/01/17 10:08:59;;;;;;;391.67;52.22;;;8.30;99.90;;;;;;5032536;28;20493;-37
2023/01/17 10:11:40;;;;;;;8.60;3.50;;;8.60;99.90;;;;;;5072005;28;20048;-39
2023/01/17 10:14:21;;;;;;;9.13;3.97;;;8.90;99.90;;;;;;5066573;28;20056;-39
2023/01/17 10:16:52;;;;;;;66.18;10.95;;;9.00;99.90;;;;;;5069310;28;20374;-39
2023/01/17 10:19:36;;;;;;;49.67;10.55;;;9.30;99.90;;;;;;5070585;28;20040;-39
2023/01/17 10:22:45;;;;;;;8.70;3.95;;;9.50;99.90;;;;;;5065828;28;20119;-39
2023/01/17 10:25:31;;;;;;;100.63;17.83;;;9.10;99.90;;;;;;4981729;28;20077;-40
2023/01/17 10:28:32;;;;;;;4.15;2.30;;;9.30;99.90;;;;;;5010020;28;20049;-39
2023/01/17 10:31:05;;;;;;;5.13;2.20;;;9.50;99.90;;;;;;5067249;28;20493;-41
2023/01/17 10:33:43;;;;;;;4.23;2.60;;;9.60;99.90;;;;;;5070318;28;20028;-40
2023/01/17 10:36:23;;;;;;;4.10;2.63;;;9.50;99.90;;;;;;5070631;28;20515;-40
2023/01/17 10:39:28;;;;;;;5.30;1.98;;;9.00;99.90;;;;;;5073753;28;20033;-40
2023/01/17 10:41:57;;;;;;;4.05;2.10;;;8.40;99.90;;;;;;5060786;28;20052;-40
2023/01/17 10:44:33;;;;;;;4.13;1.92;;;8.10;99.90;;;;;;5070143;28;20166;-39
2023/01/17 10:47:11;;;;;;;5.38;2.22;;;8.10;99.90;;;;;;5070254;28;20071;-40
2023/01/17 10:49:44;;;;;;;5.75;3.65;;;7.90;99.90;;;;;;5070409;28;20105;-39
2023/01/17 10:52:37;;;;;;;5.68;4.00;;;8.10;99.90;;;;;;5071465;28;20036;-40
2023/01/17 10:55:18;;;;;;;9.68;4.82;;;8.50;99.90;;;;;;5055331;28;20048;-39
2023/01/17 10:57:46;;;;;;;12.15;4.07;;;9.20;99.90;;;;;;5068922;28;20042;-40
2023/01/17 11:00:27;;;;;;;7.45;3.33;;;9.80;99.90;;;;;;5069997;28;20124;-40
2023/01/17 11:02:53;;;;;;;5.55;3.78;;;10.20;99.90;;;;;;5071055;28;20090;-40
2023/01/17 11:05:30;;;;;;;3.72;2.25;;;10.10;99.90;;;;;;5063537;28;20041;-37
2023/01/17 11:08:14;;;;;;;5.60;2.42;;;9.90;99.90;;;;;;5067652;28;20040;-39
2023/01/17 11:10:48;;;;;;;4.38;2.10;;;9.80;99.90;;;;;;5062552;28;20472;-39
2023/01/17 11:13:35;;;;;;;3.47;2.15;;;9.50;99.90;;;;;;5068441;28;20037;-42
2023/01/17 11:16:08;;;;;;;4.75;2.13;;;9.80;99.90;;;;;;5081240;28;20117;-43
2023/01/17 11:18:37;;;;;;;6.88;2.65;;;9.90;99.90;;;;;;5069458;28;20085;-45
2023/01/17 11:21:10;;;;;;;5.43;2.25;;;10.00;99.90;;;;;;5070019;28;20040;-43
2023/01/17 11:23:38;;;;;;;4.03;1.98;;;10.20;99.90;;;;;;5067652;28;20032;-42
2023/01/17 11:26:06;;;;;;;5.25;2.42;;;10.40;99.90;;;;;;5054985;28;20049;-42
2023/01/17 11:28:37;;;;;;;4.63;2.50;;;10.40;99.90;;;;;;5072163;28;20040;-42
2023/01/17 11:31:07;;;;;;;6.00;3.50;;;10.50;99.90;;;;;;5070015;28;20044;-42
2023/01/17 11:33:44;;;;;;;4.88;2.10;;;10.30;99.90;;;;;;5069939;28;20083;-42
2023/01/17 11:36:23;;;;;;;5.40;2.47;;;10.40;99.90;;;;;;5066275;28;20451;-43
2023/01/17 11:39:03;;;;;;;2.85;1.65;;;10.20;99.90;;;;;;5067939;28;20033;-42
2023/01/17 11:41:34;;;;;;;5.57;2.22;;;10.00;99.90;;;;;;5072518;28;20059;-41
2023/01/17 11:44:01;;;;;;;2.78;1.95;;;10.00;99.90;;;;;;5052958;28;20051;-45
2023/01/17 11:46:28;;;;;;;4.25;2.58;;;9.80;99.90;;;;;;5072371;28;20040;-42
2023/01/17 11:48:59;;;;;;;2.97;1.75;;;10.20;99.90;;;;;;5061441;28;20132;-42
2023/01/17 11:51:32;;;;;;;5.35;2.40;;;10.20;99.90;;;;;;5071653;28;20073;-42
2023/01/17 11:54:15;;;;;;;4.78;1.90;;;10.30;99.90;;;;;;5073927;28;20044;-43
2023/01/17 11:56:44;;;;;;;3.47;1.83;;;9.90;99.90;;;;;;5067679;28;20481;-42
2023/01/17 11:59:19;;;;;;;3.65;2.15;;;9.70;99.90;;;;;;5073223;28;20056;-43
2023/01/17 12:02:03;;;;;;;2.95;1.90;;;9.90;99.90;;;;;;5065983;28;20039;-42
2023/01/17 12:04:29;;;;;;;4.18;1.90;;;9.90;99.90;;;;;;5073539;28;20032;-42
2023/01/17 12:07:09;;;;;;;4.95;2.13;;;10.20;99.90;;;;;;5073386;28;20041;-43
2023/01/17 12:09:44;;;;;;;4.20;1.95;;;10.80;99.90;;;;;;5068410;28;20473;-45
2023/01/17 12:14:57;;;;;;;7.03;2.25;;;10.70;99.90;;;;;;5075669;28;20056;-44
2023/01/17 12:17:43;;;;;;;3.42;1.70;;;11.20;99.90;;;;;;5072770;28;20041;-43
2023/01/17 12:20:55;;;;;;;4.75;1.90;;;11.30;99.90;;;;;;5068018;28;20033;-45
2023/01/17 12:23:46;;;;;;;6.90;2.40;;;11.10;99.90;;;;;;5081191;28;20029;-41
2023/01/17 12:26:23;;;;;;;5.53;2.40;;;11.20;99.90;;;;;;5073284;28;20040;-41
2023/01/17 12:28:59;;;;;;;4.85;1.75;;;11.50;99.90;;;;;;5060571;28;20040;-42
2023/01/17 12:31:37;;;;;;;3.10;1.73;;;10.90;99.90;;;;;;5062200;28;20033;-37
2023/01/17 12:34:12;;;;;;;5.03;2.42;;;9.50;99.90;;;;;;5057064;28;20041;-43
2023/01/17 12:36:53;;;;;;;6.03;2.17;;;8.60;99.90;;;;;;5072660;28;20040;-42
2023/01/17 12:39:24;;;;;;;6.07;2.20;;;8.00;99.90;;;;;;5080922;28;20123;-43
2023/01/17 12:41:57;;;;;;;40.08;19.08;;;7.80;99.90;;;;;;5073113;28;20085;-38
2023/01/17 12:44:36;;;;;;;26.60;11.88;;;8.40;99.90;;;;;;5072519;28;20068;-38
2023/01/17 12:47:04;;;;;;;43.85;18.80;;;9.40;99.90;;;;;;5072571;28;20086;-38
2023/01/17 12:50:09;;;;;;;8.75;4.40;;;10.20;99.90;;;;;;5072776;28;20044;-38
2023/01/17 12:52:47;;;;;;;10.80;5.18;;;10.90;99.90;;;;;;5041932;28;20045;-41
2023/01/17 12:55:41;;;;;;;14.02;6.53;;;11.40;99.90;;;;;;5076493;28;20047;-41
2023/01/17 12:58:13;;;;;;;;;;;11.60;99.90;;;;;;5069527;28;20041;-39
2023/01/17 13:00:41;;;;;;;3.88;2.28;;;11.40;99.90;;;;;;5065367;28;19920;-42
2023/01/17 13:03:19;;;;;;;6.57;3.97;;;12.00;99.90;;;;;;5072110;28;20036;-41
2023/01/17 13:05:47;;;;;;;5.03;2.80;;;12.30;99.90;;;;;;5067537;28;20040;-41
2023/01/17 13:08:18;;;;;;;5.18;2.50;;;12.80;99.90;;;;;;5067042;28;20082;-42
2023/01/17 13:11:17;;;;;;;7.75;5.55;;;13.30;99.90;;;;;;5065644;28;20071;-41
2023/01/17 13:13:43;;;;;;;6.78;2.67;;;13.40;99.90;;;;;;5066482;28;20049;-41
2023/01/17 13:16:35;;;;;;;4.20;2.53;;;13.50;99.90;;;;;;5071959;28;20032;-41
2023/01/17 13:19:18;;;;;;;6.43;2.60;;;13.10;99.90;;;;;;5061707;28;20183;-42
2023/01/17 13:21:47;;;;;;;3.38;2.72;;;13.10;75.00;;;;;;5064906;28;20028;-41
2023/01/17 13:24:13;;;;;;;4.38;1.80;;;13.00;99.90;;;;;;5071782;28;20086;-42
2023/01/17 13:26:44;;;;;;;4.05;1.58;;;12.80;99.90;;;;;;5074392;28;20072;-41
2023/01/17 13:29:29;;;;;;;4.75;4.15;;;12.40;99.90;;;;;;5071658;28;20039;-42
2023/01/17 13:32:29;;;;;;;4.55;2.00;;;11.90;99.90;;;;;;5065802;28;20032;-40
2023/01/17 13:35:10;;;;;;;5.22;1.92;;;11.30;99.90;;;;;;5065851;28;20036;-40
2023/01/17 13:37:48;;;;;;;2.85;1.65;;;10.50;99.90;;;;;;5071465;28;20125;-40
2023/01/17 13:40:35;;;;;;;6.35;4.05;;;9.50;99.90;;;;;;5071648;28;20115;-40
2023/01/17 13:43:12;;;;;;;8.25;1.85;;;8.80;99.90;;;;;;5075540;28;20587;-40
2023/01/17 13:45:39;;;;;;;4.93;1.98;;;8.40;99.90;;;;;;5069106;28;20032;-37
2023/01/17 13:48:11;;;;;;;3.67;1.48;;;8.40;99.90;;;;;;5074135;28;20041;-37
2023/01/17 13:50:39;;;;;;;2.45;1.80;;;8.40;99.90;;;;;;5074348;28;20051;-37
2023/01/17 13:53:27;;;;;;;1.88;1.20;;;8.50;99.90;;;;;;5073788;28;20064;-37
2023/01/17 13:56:22;;;;;;;5.07;1.95;;;8.30;99.90;;;;;;5073427;28;20049;-37
2023/01/17 13:58:49;;;;;;;2.05;1.20;;;8.10;99.90;;;;;;5048193;28;20493;-37
2023/01/17 14:01:43;;;;;;;3.53;2.58;;;8.10;99.90;;;;;;5073627;28;20040;-37
2023/01/17 14:04:10;;;;;;;4.72;1.90;;;7.80;99.90;;;;;;5062113;28;20044;-42
2023/01/17 14:06:39;;;;;;;7.63;1.45;;;7.70;99.90;;;;;;5071021;28;20067;-42
2023/01/17 14:09:17;;;;;;;4.28;1.60;;;7.80;99.90;;;;;;5070425;28;20036;-43
2023/01/17 14:11:54;;;;;;;2.60;1.23;;;7.60;99.90;;;;;;5070450;28;20040;-42
2023/01/17 14:14:38;;;;;;;3.47;1.45;;;7.40;99.90;;;;;;5070946;28;20044;-41
2023/01/17 14:17:24;;;;;;;3.85;1.40;;;7.30;99.90;;;;;;5065874;28;20080;-44
2023/01/17 14:20:17;;;;;;;5.47;1.40;;;7.30;99.90;;;;;;5064185;28;20123;-41
2023/01/17 14:22:50;;;;;;;2.57;1.30;;;7.10;99.90;;;;;;5072011;28;20040;-41
2023/01/17 14:25:19;;;;;;;5.47;1.67;;;7.00;99.90;;;;;;5068436;28;20035;-41
2023/01/17 14:28:19;;;;;;;2.55;1.13;;;6.80;99.90;;;;;;5070592;28;20075;-41
2023/01/17 14:30:47;;;;;;;2.10;1.60;;;6.70;99.90;;;;;;5064786;28;20103;-42
2023/01/17 14:33:19;;;;;;;3.63;1.58;;;6.60;99.90;;;;;;5054272;28;20493;-43
2023/01/17 14:35:51;;;;;;;4.00;1.27;;;6.30;99.90;;;;;;5063377;28;20036;-43
2023/01/17 14:38:32;;;;;;;4.90;1.60;;;6.00;99.90;;;;;;5070333;28;20051;-41
2023/01/17 14:41:06;;;;;;;2.38;1.23;;;5.90;99.90;;;;;;5070545;28;20310;-42
2023/01/17 14:43:33;;;;;;;;;;;5.70;99.90;;;;;;5062687;28;20118;-41